sensor_id;sensor_type;location;lat;lon;timestamp;pressure;altitude;pressure_sealevel;temperature;humidity
28797;BME280;24974;54.444;18.560;2022-08-24T04:53:40;101694.81;;;21.62;85.28
28797;BME280;24974;54.444;18.560;2022-08-24T04:56:18;101704.19;;;21.70;84.71
28797;BME280;24974;54.444;18.560;2022-08-24T04:58:52;101691.81;;;21.87;83.68
28797;BME280;24974;54.444;18.560;2022-08-24T05:01:26;101706.91;;;22.14;82.30
28797;BME280;24974;54.444;18.560;2022-08-24T05:03:58;101702.41;;;22.09;82.23
28797;BME280;24974;54.444;18.560;2022-08-24T05:06:31;101705.78;;;22.34;81.46
28797;BME280;24974;54.444;18.560;2022-08-24T05:09:03;101710.56;;;22.33;81.38
28797;BME280;24974;54.444;18.560;2022-08-24T05:11:36;101709.22;;;22.27;81.81
28797;BME280;24974;54.444;18.560;2022-08-24T05:14:10;101710.03;;;22.63;80.17
28797;BME280;24974;54.444;18.560;2022-08-24T05:16:41;101708.16;;;22.51;80.16
28797;BME280;24974;54.444;18.560;2022-08-24T05:19:12;101706.56;;;22.50;80.49
28797;BME280;24974;54.444;18.560;2022-08-24T05:21:43;101706.81;;;22.45;80.38
28797;BME280;24974;54.444;18.560;2022-08-24T05:24:14;101713.34;;;22.69;79.63
28797;BME280;24974;54.444;18.560;2022-08-24T05:26:45;101718.72;;;22.77;79.19
28797;BME280;24974;54.444;18.560;2022-08-24T05:29:16;101717.72;;;22.66;79.59
28797;BME280;24974;54.444;18.560;2022-08-24T05:31:52;101710.03;;;22.63;79.68
28797;BME280;24974;54.444;18.560;2022-08-24T05:34:24;101716.50;;;23.02;78.41
28797;BME280;24974;54.444;18.560;2022-08-24T05:36:55;101709.03;;;22.71;79.44
28797;BME280;24974;54.444;18.560;2022-08-24T05:39:44;101710.41;;;22.81;78.88
28797;BME280;24974;54.444;18.560;2022-08-24T05:42:15;101713.25;;;23.20;77.55
28797;BME280;24974;54.444;18.560;2022-08-24T05:44:51;101714.56;;;23.06;77.96
28797;BME280;24974;54.444;18.560;2022-08-24T05:47:25;101714.91;;;23.24;77.34
28797;BME280;24974;54.444;18.560;2022-08-24T05:50:00;101717.47;;;23.33;77.34
28797;BME280;24974;54.444;18.560;2022-08-24T05:52:31;101707.44;;;23.32;77.21
28797;BME280;24974;54.444;18.560;2022-08-24T05:55:04;101718.47;;;23.21;77.70
28797;BME280;24974;54.444;18.560;2022-08-24T05:57:35;101729.22;;;23.38;77.18
28797;BME280;24974;54.444;18.560;2022-08-24T06:00:16;101716.56;;;23.67;76.09
28797;BME280;24974;54.444;18.560;2022-08-24T06:02:49;101719.88;;;23.54;76.40
28797;BME280;24974;54.444;18.560;2022-08-24T06:05:24;101720.47;;;23.63;76.13
28797;BME280;24974;54.444;18.560;2022-08-24T06:07:55;101723.25;;;23.82;75.43
28797;BME280;24974;54.444;18.560;2022-08-24T06:10:26;101730.34;;;23.76;75.69
28797;BME280;24974;54.444;18.560;2022-08-24T06:12:58;101731.97;;;23.77;75.70
28797;BME280;24974;54.444;18.560;2022-08-24T06:15:29;101729.19;;;24.04;74.37
28797;BME280;24974;54.444;18.560;2022-08-24T06:18:00;101730.94;;;24.12;74.03
28797;BME280;24974;54.444;18.560;2022-08-24T06:20:37;101723.25;;;24.09;73.24
28797;BME280;24974;54.444;18.560;2022-08-24T06:23:09;101734.75;;;24.00;73.15
28797;BME280;24974;54.444;18.560;2022-08-24T06:25:45;101729.28;;;24.34;72.79
28797;BME280;24974;54.444;18.560;2022-08-24T06:28:34;101735.88;;;24.45;71.93
28797;BME280;24974;54.444;18.560;2022-08-24T06:31:06;101732.47;;;24.59;71.73
28797;BME280;24974;54.444;18.560;2022-08-24T06:33:39;101738.22;;;24.16;72.71
28797;BME280;24974;54.444;18.560;2022-08-24T06:36:10;101733.31;;;24.33;72.12
28797;BME280;24974;54.444;18.560;2022-08-24T06:38:41;101735.91;;;24.22;72.22
28797;BME280;24974;54.444;18.560;2022-08-24T06:41:14;101734.31;;;24.47;71.28
28797;BME280;24974;54.444;18.560;2022-08-24T06:43:45;101732.94;;;24.64;71.03
28797;BME280;24974;54.444;18.560;2022-08-24T06:46:18;101729.56;;;24.51;71.16
28797;BME280;24974;54.444;18.560;2022-08-24T06:48:51;101737.06;;;24.44;70.57
28797;BME280;24974;54.444;18.560;2022-08-24T06:51:23;101737.28;;;24.58;70.33
28797;BME280;24974;54.444;18.560;2022-08-24T06:53:55;101748.63;;;24.65;70.22
28797;BME280;24974;54.444;18.560;2022-08-24T06:56:27;101743.75;;;24.92;69.89
28797;BME280;24974;54.444;18.560;2022-08-24T06:58:59;101747.06;;;25.01;69.08
28797;BME280;24974;54.444;18.560;2022-08-24T07:01:33;101748.09;;;24.56;70.29
28797;BME280;24974;54.444;18.560;2022-08-24T07:04:04;101753.63;;;24.79;69.73
28797;BME280;24974;54.444;18.560;2022-08-24T07:06:54;101755.56;;;24.75;69.14
28797;BME280;24974;54.444;18.560;2022-08-24T07:09:25;101756.44;;;24.79;69.21
28797;BME280;24974;54.444;18.560;2022-08-24T07:11:58;101754.09;;;24.84;68.72
28797;BME280;24974;54.444;18.560;2022-08-24T07:14:29;101761.16;;;24.71;69.36
28797;BME280;24974;54.444;18.560;2022-08-24T07:17:01;101759.25;;;24.79;69.89
28797;BME280;24974;54.444;18.560;2022-08-24T07:19:33;101763.22;;;25.04;68.98
28797;BME280;24974;54.444;18.560;2022-08-24T07:22:04;101762.22;;;25.20;68.58
28797;BME280;24974;54.444;18.560;2022-08-24T07:24:36;101760.59;;;25.19;68.50
28797;BME280;24974;54.444;18.560;2022-08-24T07:27:07;101768.53;;;25.47;67.64
28797;BME280;24974;54.444;18.560;2022-08-24T07:29:40;101765.13;;;25.27;66.63
28797;BME280;24974;54.444;18.560;2022-08-24T07:32:12;101773.09;;;25.21;67.36
28797;BME280;24974;54.444;18.560;2022-08-24T07:34:45;101771.00;;;25.15;67.60
28797;BME280;24974;54.444;18.560;2022-08-24T07:37:16;101769.69;;;25.08;67.51
28797;BME280;24974;54.444;18.560;2022-08-24T07:39:51;101766.88;;;25.08;67.93
28797;BME280;24974;54.444;18.560;2022-08-24T07:42:23;101773.59;;;25.00;68.26
28797;BME280;24974;54.444;18.560;2022-08-24T07:44:54;101767.56;;;25.02;67.99
28797;BME280;24974;54.444;18.560;2022-08-24T07:47:25;101770.63;;;24.60;69.03
28797;BME280;24974;54.444;18.560;2022-08-24T07:49:56;101775.13;;;24.64;69.42
28797;BME280;24974;54.444;18.560;2022-08-24T07:52:29;101775.41;;;24.55;69.63
28797;BME280;24974;54.444;18.560;2022-08-24T07:55:03;101775.09;;;24.38;70.66
28797;BME280;24974;54.444;18.560;2022-08-24T07:57:34;101774.66;;;24.62;69.97
28797;BME280;24974;54.444;18.560;2022-08-24T08:00:11;101777.31;;;24.51;70.25
28797;BME280;24974;54.444;18.560;2022-08-24T08:02:45;101771.38;;;24.57;70.15
28797;BME280;24974;54.444;18.560;2022-08-24T08:05:20;101778.91;;;24.49;70.54
28797;BME280;24974;54.444;18.560;2022-08-24T08:07:55;101777.41;;;24.55;70.40
28797;BME280;24974;54.444;18.560;2022-08-24T08:10:26;101784.03;;;24.43;70.77
28797;BME280;24974;54.444;18.560;2022-08-24T08:13:02;101778.78;;;24.42;70.06
28797;BME280;24974;54.444;18.560;2022-08-24T08:15:35;101776.78;;;24.69;69.15
28797;BME280;24974;54.444;18.560;2022-08-24T08:18:12;101776.09;;;24.49;70.64
28797;BME280;24974;54.444;18.560;2022-08-24T08:20:44;101784.81;;;24.97;68.49
28797;BME280;24974;54.444;18.560;2022-08-24T08:23:18;101785.25;;;25.02;68.20
28797;BME280;24974;54.444;18.560;2022-08-24T08:26:13;101787.25;;;25.02;69.14
28797;BME280;24974;54.444;18.560;2022-08-24T08:29:03;101786.56;;;25.42;67.86
28797;BME280;24974;54.444;18.560;2022-08-24T08:31:39;101787.97;;;25.22;67.81
28797;BME280;24974;54.444;18.560;2022-08-24T08:34:11;101788.50;;;25.34;67.48
28797;BME280;24974;54.444;18.560;2022-08-24T08:36:43;101783.56;;;25.99;64.94
28797;BME280;24974;54.444;18.560;2022-08-24T08:39:17;101774.94;;;26.29;64.44
28797;BME280;24974;54.444;18.560;2022-08-24T08:42:17;101782.00;;;26.49;63.60
28797;BME280;24974;54.444;18.560;2022-08-24T08:56:49;101777.34;;;26.23;64.07
28797;BME280;24974;54.444;18.560;2022-08-24T09:02:55;101777.78;;;26.91;62.55
28797;BME280;24974;54.444;18.560;2022-08-24T09:08:51;101778.75;;;27.13;61.45
28797;BME280;24974;54.444;18.560;2022-08-24T09:11:48;101784.59;;;26.79;62.57
28797;BME280;24974;54.444;18.560;2022-08-24T09:25:58;101783.69;;;26.64;61.95
28797;BME280;24974;54.444;18.560;2022-08-24T09:28:57;101776.63;;;26.33;62.21
28797;BME280;24974;54.444;18.560;2022-08-24T09:34:17;101778.59;;;26.91;60.63
28797;BME280;24974;54.444;18.560;2022-08-24T09:42:39;101780.00;;;27.29;60.49
28797;BME280;24974;54.444;18.560;2022-08-24T09:45:54;101777.31;;;27.72;59.21
28797;BME280;24974;54.444;18.560;2022-08-24T10:02:50;101782.38;;;27.17;59.99
28797;BME280;24974;54.444;18.560;2022-08-24T10:35:42;101793.09;;;27.95;58.77
28797;BME280;24974;54.444;18.560;2022-08-24T10:56:13;101794.53;;;29.20;54.49
28797;BME280;24974;54.444;18.560;2022-08-24T11:01:34;101791.97;;;29.55;53.06
28797;BME280;24974;54.444;18.560;2022-08-24T11:04:12;101794.25;;;29.74;53.08
28797;BME280;24974;54.444;18.560;2022-08-24T11:07:17;101799.25;;;30.56;51.23
28797;BME280;24974;54.444;18.560;2022-08-24T11:09:53;101805.63;;;30.26;51.61
28797;BME280;24974;54.444;18.560;2022-08-24T11:12:33;101804.47;;;29.61;52.87
28797;BME280;24974;54.444;18.560;2022-08-24T11:15:25;101800.78;;;30.23;52.02
28797;BME280;24974;54.444;18.560;2022-08-24T11:17:59;101800.94;;;30.08;51.85
28797;BME280;24974;54.444;18.560;2022-08-24T11:20:34;101802.56;;;30.02;51.72
28797;BME280;24974;54.444;18.560;2022-08-24T11:23:08;101804.41;;;30.27;51.13
28797;BME280;24974;54.444;18.560;2022-08-24T11:25:51;101808.16;;;30.58;49.97
28797;BME280;24974;54.444;18.560;2022-08-24T11:28:31;101811.53;;;29.94;51.65
28797;BME280;24974;54.444;18.560;2022-08-24T11:31:03;101812.69;;;29.26;54.00
28797;BME280;24974;54.444;18.560;2022-08-24T11:33:50;101813.78;;;29.61;53.36
28797;BME280;24974;54.444;18.560;2022-08-24T11:36:27;101807.44;;;29.98;52.05
28797;BME280;24974;54.444;18.560;2022-08-24T11:39:21;101804.22;;;30.86;50.48
28797;BME280;24974;54.444;18.560;2022-08-24T11:42:30;101809.69;;;31.04;49.24
28797;BME280;24974;54.444;18.560;2022-08-24T11:45:13;101809.81;;;31.31;48.69
28797;BME280;24974;54.444;18.560;2022-08-24T11:54:07;101819.69;;;31.50;48.17
28797;BME280;24974;54.444;18.560;2022-08-24T12:02:21;101826.16;;;29.85;52.52
28797;BME280;24974;54.444;18.560;2022-08-24T12:05:03;101821.97;;;29.27;53.95
28797;BME280;24974;54.444;18.560;2022-08-24T12:10:19;101825.56;;;29.42;54.62
28797;BME280;24974;54.444;18.560;2022-08-24T12:19:13;101816.53;;;28.49;55.40
28797;BME280;24974;54.444;18.560;2022-08-24T12:21:50;101816.50;;;28.74;55.52
28797;BME280;24974;54.444;18.560;2022-08-24T12:24:30;101814.50;;;28.38;55.97
28797;BME280;24974;54.444;18.560;2022-08-24T12:27:07;101821.25;;;29.09;54.24
28797;BME280;24974;54.444;18.560;2022-08-24T12:29:43;101809.16;;;29.85;52.94
28797;BME280;24974;54.444;18.560;2022-08-24T12:32:19;101809.38;;;30.98;50.00
28797;BME280;24974;54.444;18.560;2022-08-24T12:35:14;101809.25;;;30.71;50.57
28797;BME280;24974;54.444;18.560;2022-08-24T12:37:53;101805.09;;;30.79;50.29
28797;BME280;24974;54.444;18.560;2022-08-24T12:40:32;101817.25;;;30.83;49.74
28797;BME280;24974;54.444;18.560;2022-08-24T12:43:08;101812.06;;;31.09;49.27
28797;BME280;24974;54.444;18.560;2022-08-24T12:45:40;101811.28;;;31.69;47.97
28797;BME280;24974;54.444;18.560;2022-08-24T12:48:22;101810.38;;;31.15;49.01
28797;BME280;24974;54.444;18.560;2022-08-24T12:51:21;101812.38;;;31.22;49.30
28797;BME280;24974;54.444;18.560;2022-08-24T13:07:39;101813.59;;;31.17;49.56
28797;BME280;24974;54.444;18.560;2022-08-24T13:11:02;101820.03;;;31.25;49.18
28797;BME280;24974;54.444;18.560;2022-08-24T13:23:20;101824.31;;;29.57;53.77
28797;BME280;24974;54.444;18.560;2022-08-24T13:33:50;101821.78;;;28.39;57.20
28797;BME280;24974;54.444;18.560;2022-08-24T13:42:44;101832.16;;;26.84;61.79
28797;BME280;24974;54.444;18.560;2022-08-24T13:50:59;101838.31;;;28.12;58.73
28797;BME280;24974;54.444;18.560;2022-08-24T14:07:41;101820.91;;;28.78;57.05
28797;BME280;24974;54.444;18.560;2022-08-24T14:16:21;101828.25;;;28.43;56.74
28797;BME280;24974;54.444;18.560;2022-08-24T14:25:20;101837.03;;;26.94;61.57
28797;BME280;24974;54.444;18.560;2022-08-24T14:35:37;101835.66;;;26.19;64.08
28797;BME280;24974;54.444;18.560;2022-08-24T14:38:31;101829.81;;;25.98;64.96
28797;BME280;24974;54.444;18.560;2022-08-24T14:41:49;101827.00;;;25.60;66.41
28797;BME280;24974;54.444;18.560;2022-08-24T14:44:24;101834.47;;;25.46;67.09
28797;BME280;24974;54.444;18.560;2022-08-24T14:47:12;101836.41;;;25.72;65.66
28797;BME280;24974;54.444;18.560;2022-08-24T14:50:05;101828.50;;;25.51;66.51
28797;BME280;24974;54.444;18.560;2022-08-24T14:53:01;101831.84;;;25.63;65.69
28797;BME280;24974;54.444;18.560;2022-08-24T14:56:06;101835.91;;;25.66;65.69
28797;BME280;24974;54.444;18.560;2022-08-24T15:09:24;101852.38;;;25.64;65.30
28797;BME280;24974;54.444;18.560;2022-08-24T15:21:10;101846.94;;;25.78;64.73
28797;BME280;24974;54.444;18.560;2022-08-24T15:29:21;101848.88;;;25.74;65.66
28797;BME280;24974;54.444;18.560;2022-08-24T15:32:06;101854.59;;;25.81;64.80
28797;BME280;24974;54.444;18.560;2022-08-24T15:34:51;101850.97;;;25.81;64.70
28797;BME280;24974;54.444;18.560;2022-08-24T15:39:59;101858.31;;;25.89;64.89
28797;BME280;24974;54.444;18.560;2022-08-24T15:42:34;101859.34;;;26.11;63.41
28797;BME280;24974;54.444;18.560;2022-08-24T15:45:06;101854.03;;;26.43;63.34
28797;BME280;24974;54.444;18.560;2022-08-24T15:47:43;101857.34;;;26.11;62.67
28797;BME280;24974;54.444;18.560;2022-08-24T15:50:22;101858.44;;;26.44;62.98
28797;BME280;24974;54.444;18.560;2022-08-24T15:55:47;101856.38;;;26.92;61.86
28797;BME280;24974;54.444;18.560;2022-08-24T15:58:24;101858.75;;;26.35;63.58
28797;BME280;24974;54.444;18.560;2022-08-24T16:03:58;101861.19;;;25.92;64.49
28797;BME280;24974;54.444;18.560;2022-08-24T16:11:58;101856.13;;;26.12;64.77
28797;BME280;24974;54.444;18.560;2022-08-24T16:14:43;101851.22;;;26.06;64.81
28797;BME280;24974;54.444;18.560;2022-08-24T16:17:28;101844.13;;;25.45;66.65
28797;BME280;24974;54.444;18.560;2022-08-24T16:20:07;101853.31;;;25.42;66.68
28797;BME280;24974;54.444;18.560;2022-08-24T16:22:51;101853.78;;;25.17;66.45
28797;BME280;24974;54.444;18.560;2022-08-24T16:31:03;101855.50;;;25.55;65.34
28797;BME280;24974;54.444;18.560;2022-08-24T16:33:43;101860.66;;;25.50;66.04
28797;BME280;24974;54.444;18.560;2022-08-24T16:36:17;101862.81;;;25.30;66.60
28797;BME280;24974;54.444;18.560;2022-08-24T16:38:50;101867.53;;;25.22;66.79
28797;BME280;24974;54.444;18.560;2022-08-24T16:41:23;101879.63;;;25.26;66.57
28797;BME280;24974;54.444;18.560;2022-08-24T16:43:54;101875.25;;;25.02;66.89
28797;BME280;24974;54.444;18.560;2022-08-24T16:46:25;101868.53;;;24.80;67.39
28797;BME280;24974;54.444;18.560;2022-08-24T16:48:56;101882.38;;;24.43;68.74
28797;BME280;24974;54.444;18.560;2022-08-24T16:51:27;101886.22;;;24.58;67.72
28797;BME280;24974;54.444;18.560;2022-08-24T16:53:58;101884.91;;;24.29;68.79
28797;BME280;24974;54.444;18.560;2022-08-24T16:56:29;101888.75;;;24.21;69.11
28797;BME280;24974;54.444;18.560;2022-08-24T16:59:00;101893.47;;;24.36;68.77
28797;BME280;24974;54.444;18.560;2022-08-24T17:01:31;101891.88;;;24.35;69.07
28797;BME280;24974;54.444;18.560;2022-08-24T17:04:02;101896.50;;;24.27;69.29
28797;BME280;24974;54.444;18.560;2022-08-24T17:06:34;101896.16;;;24.52;68.95
28797;BME280;24974;54.444;18.560;2022-08-24T17:09:05;101901.63;;;24.41;69.27
28797;BME280;24974;54.444;18.560;2022-08-24T17:11:36;101899.19;;;24.20;69.57
28797;BME280;24974;54.444;18.560;2022-08-24T17:14:07;101897.75;;;24.30;69.55
28797;BME280;24974;54.444;18.560;2022-08-24T17:16:39;101902.66;;;24.33;69.59
28797;BME280;24974;54.444;18.560;2022-08-24T17:19:12;101901.25;;;24.00;70.89
28797;BME280;24974;54.444;18.560;2022-08-24T17:21:43;101899.50;;;24.15;70.82
28797;BME280;24974;54.444;18.560;2022-08-24T17:24:17;101900.28;;;24.35;70.16
28797;BME280;24974;54.444;18.560;2022-08-24T17:26:49;101900.38;;;24.19;70.69
28797;BME280;24974;54.444;18.560;2022-08-24T17:29:22;101902.19;;;24.08;71.35
28797;BME280;24974;54.444;18.560;2022-08-24T17:31:54;101905.16;;;23.96;71.40
28797;BME280;24974;54.444;18.560;2022-08-24T17:34:25;101899.88;;;24.14;71.06
28797;BME280;24974;54.444;18.560;2022-08-24T17:36:58;101905.09;;;23.73;72.52
28797;BME280;24974;54.444;18.560;2022-08-24T17:39:30;101918.91;;;23.82;71.97
28797;BME280;24974;54.444;18.560;2022-08-24T17:42:01;101914.69;;;23.72;72.54
28797;BME280;24974;54.444;18.560;2022-08-24T17:44:33;101913.88;;;23.52;72.87
28797;BME280;24974;54.444;18.560;2022-08-24T17:47:06;101917.34;;;23.45;73.28
28797;BME280;24974;54.444;18.560;2022-08-24T17:49:37;101916.94;;;23.63;72.78
28797;BME280;24974;54.444;18.560;2022-08-24T17:52:09;101916.03;;;23.78;72.17
28797;BME280;24974;54.444;18.560;2022-08-24T17:54:39;101921.91;;;23.54;72.85
28797;BME280;24974;54.444;18.560;2022-08-24T17:57:13;101919.72;;;23.63;72.34
28797;BME280;24974;54.444;18.560;2022-08-24T17:59:44;101926.94;;;23.44;73.25
28797;BME280;24974;54.444;18.560;2022-08-24T18:02:15;101923.59;;;23.39;73.03
28797;BME280;24974;54.444;18.560;2022-08-24T18:04:46;101928.41;;;23.58;72.50
28797;BME280;24974;54.444;18.560;2022-08-24T18:07:19;101932.28;;;23.69;72.02
28797;BME280;24974;54.444;18.560;2022-08-24T18:09:52;101937.53;;;23.70;71.58
28797;BME280;24974;54.444;18.560;2022-08-24T18:12:25;101936.66;;;23.66;71.65
28797;BME280;24974;54.444;18.560;2022-08-24T18:14:56;101953.91;;;23.33;72.36
28797;BME280;24974;54.444;18.560;2022-08-24T18:17:36;101951.88;;;23.50;71.76
28797;BME280;24974;54.444;18.560;2022-08-24T18:20:09;101956.00;;;23.36;72.16
28797;BME280;24974;54.444;18.560;2022-08-24T18:22:41;101957.31;;;23.58;71.24
28797;BME280;24974;54.444;18.560;2022-08-24T18:25:19;101958.22;;;23.62;71.28
28797;BME280;24974;54.444;18.560;2022-08-24T18:27:52;101964.03;;;23.73;71.03
28797;BME280;24974;54.444;18.560;2022-08-24T18:30:29;101968.84;;;23.37;72.29
28797;BME280;24974;54.444;18.560;2022-08-24T18:32:59;101962.56;;;23.60;71.49
28797;BME280;24974;54.444;18.560;2022-08-24T18:35:31;101968.31;;;23.32;72.22
28797;BME280;24974;54.444;18.560;2022-08-24T18:38:03;101970.31;;;23.31;72.38
28797;BME280;24974;54.444;18.560;2022-08-24T18:40:34;101966.38;;;23.01;73.72
28797;BME280;24974;54.444;18.560;2022-08-24T18:43:05;101967.09;;;22.82;75.02
28797;BME280;24974;54.444;18.560;2022-08-24T18:45:37;101969.44;;;23.11;74.53
28797;BME280;24974;54.444;18.560;2022-08-24T18:48:08;101978.69;;;23.12;74.10
28797;BME280;24974;54.444;18.560;2022-08-24T18:50:39;101971.16;;;23.00;74.58
28797;BME280;24974;54.444;18.560;2022-08-24T18:53:10;101971.84;;;23.29;73.85
28797;BME280;24974;54.444;18.560;2022-08-24T18:55:42;101969.66;;;23.03;74.87
28797;BME280;24974;54.444;18.560;2022-08-24T18:58:15;101973.31;;;23.23;73.59
28797;BME280;24974;54.444;18.560;2022-08-24T19:00:47;101972.69;;;22.82;74.81
28797;BME280;24974;54.444;18.560;2022-08-24T19:03:21;101972.63;;;22.78;74.64
28797;BME280;24974;54.444;18.560;2022-08-24T19:05:53;101964.38;;;22.70;75.22
28797;BME280;24974;54.444;18.560;2022-08-24T19:08:25;101963.38;;;22.78;74.88
28797;BME280;24974;54.444;18.560;2022-08-24T19:10:56;101967.31;;;22.89;74.40
28797;BME280;24974;54.444;18.560;2022-08-24T19:13:27;101966.66;;;22.80;74.37
28797;BME280;24974;54.444;18.560;2022-08-24T19:15:58;101969.72;;;23.06;73.42
28797;BME280;24974;54.444;18.560;2022-08-24T19:18:28;101967.13;;;22.98;73.87
28797;BME280;24974;54.444;18.560;2022-08-24T19:20:59;101960.50;;;22.90;73.82
28797;BME280;24974;54.444;18.560;2022-08-24T19:23:34;101965.38;;;22.93;74.19
28797;BME280;24974;54.444;18.560;2022-08-24T19:26:05;101957.06;;;22.97;73.93
28797;BME280;24974;54.444;18.560;2022-08-24T19:28:36;101956.63;;;22.63;75.16
28797;BME280;24974;54.444;18.560;2022-08-24T19:31:10;101958.84;;;22.42;75.95
28797;BME280;24974;54.444;18.560;2022-08-24T19:33:43;101959.28;;;22.44;76.18
28797;BME280;24974;54.444;18.560;2022-08-24T19:36:16;101955.63;;;22.71;75.07
28797;BME280;24974;54.444;18.560;2022-08-24T19:38:47;101946.03;;;22.72;75.34
28797;BME280;24974;54.444;18.560;2022-08-24T19:41:18;101951.44;;;22.33;76.63
28797;BME280;24974;54.444;18.560;2022-08-24T19:43:51;101951.91;;;22.51;75.99
28797;BME280;24974;54.444;18.560;2022-08-24T19:46:41;101954.97;;;22.30;76.97
28797;BME280;24974;54.444;18.560;2022-08-24T19:49:12;101946.28;;;22.67;75.70
28797;BME280;24974;54.444;18.560;2022-08-24T19:51:44;101955.47;;;22.20;77.36
28797;BME280;24974;54.444;18.560;2022-08-24T19:54:15;101953.69;;;22.44;76.82
28797;BME280;24974;54.444;18.560;2022-08-24T19:56:46;101955.97;;;22.54;76.10
28797;BME280;24974;54.444;18.560;2022-08-24T19:59:20;101958.00;;;22.25;77.10
28797;BME280;24974;54.444;18.560;2022-08-24T20:01:54;101956.38;;;22.24;77.23
28797;BME280;24974;54.444;18.560;2022-08-24T20:04:25;101955.38;;;22.04;77.99
